createdAt,value
2019-02-02T00:01:03.482Z,32.07
2019-02-02T00:03:34.583Z,30.80
2019-02-02T00:06:06.185Z,33.37
2019-02-02T00:08:37.639Z,38.37
2019-02-02T00:11:08.461Z,36.43
2019-02-02T00:13:39.718Z,35.93
2019-02-02T00:16:10.990Z,43.53
2019-02-02T00:18:41.943Z,31.73
2019-02-02T00:21:12.880Z,39.07
2019-02-02T00:23:43.823Z,32.43
2019-02-02T00:26:15.753Z,31.33
2019-02-02T00:28:46.631Z,33.53
2019-02-02T00:31:17.575Z,34.90
2019-02-02T00:33:49.758Z,31.87
2019-02-02T00:36:20.937Z,34.77
2019-02-02T00:38:52.010Z,33.87
2019-02-02T00:41:23.054Z,35.20
2019-02-02T00:43:53.994Z,35.53
2019-02-02T00:46:24.795Z,33.43
2019-02-02T00:48:56.350Z,36.27
2019-02-02T00:51:27.512Z,35.97
2019-02-02T00:53:58.616Z,36.43
2019-02-02T00:56:29.393Z,35.63
2019-02-02T00:59:00.552Z,32.37
2019-02-02T01:01:31.412Z,34.97
2019-02-02T01:04:02.223Z,34.93
2019-02-02T01:06:33.438Z,37.30
2019-02-02T01:09:09.752Z,35.57
2019-02-02T01:11:41.115Z,36.47
2019-02-02T01:14:12.093Z,33.93
2019-02-02T01:16:43.113Z,35.10
2019-02-02T01:19:14.065Z,33.10
2019-02-02T01:21:45.167Z,31.93
2019-02-02T01:24:16.710Z,34.07
2019-02-02T01:26:47.569Z,34.50
2019-02-02T01:29:18.746Z,35.17
2019-02-02T01:31:49.670Z,33.27
2019-02-02T01:34:20.533Z,35.50
2019-02-02T01:36:51.454Z,35.67
2019-02-02T01:39:22.256Z,32.73
2019-02-02T01:41:53.345Z,32.57
2019-02-02T01:44:24.197Z,32.70
2019-02-02T01:46:55.342Z,34.27
2019-02-02T01:49:26.203Z,32.33
2019-02-02T01:51:57.275Z,31.87
2019-02-02T01:54:28.500Z,36.27
2019-02-02T01:56:59.608Z,34.90
2019-02-02T01:59:30.752Z,32.67
2019-02-02T02:02:01.877Z,32.77
2019-02-02T02:04:32.940Z,33.63
2019-02-02T02:07:04.091Z,38.47
2019-02-02T02:09:35.097Z,34.83
2019-02-02T02:12:05.976Z,32.07
2019-02-02T02:14:37.149Z,33.33
2019-02-02T02:17:08.474Z,32.57
2019-02-02T02:19:40.301Z,32.43
2019-02-02T02:22:11.144Z,35.73
2019-02-02T02:24:42.284Z,34.53
2019-02-02T02:27:13.406Z,33.20
2019-02-02T02:29:44.260Z,34.53
2019-02-02T02:32:15.267Z,35.43
2019-02-02T02:34:46.350Z,32.97
2019-02-02T02:37:17.123Z,34.33
2019-02-02T02:39:47.914Z,31.43
2019-02-02T02:42:18.979Z,34.77
2019-02-02T02:44:49.801Z,33.37
2019-02-02T02:47:20.589Z,31.90
2019-02-02T02:49:51.619Z,31.97
2019-02-02T02:52:22.724Z,36.63
2019-02-02T02:54:53.814Z,30.67
2019-02-02T02:57:24.597Z,33.00
2019-02-02T02:59:55.875Z,30.50
2019-02-02T03:02:26.879Z,30.90
2019-02-02T03:04:57.666Z,33.50
2019-02-02T03:07:28.501Z,31.80
2019-02-02T03:09:59.285Z,32.80
2019-02-02T03:12:30.140Z,35.47
2019-02-02T03:15:01.063Z,32.97
2019-02-02T03:17:32.545Z,34.47
2019-02-02T03:20:03.719Z,30.50
2019-02-02T03:22:34.579Z,31.53
2019-02-02T03:25:07.325Z,35.50
2019-02-02T03:27:38.375Z,33.37
2019-02-02T03:30:11.855Z,32.90
2019-02-02T03:32:43.073Z,36.83
2019-02-02T03:35:15.151Z,35.77
2019-02-02T03:37:46.025Z,36.17
2019-02-02T03:40:19.207Z,37.40
2019-02-02T03:42:50.698Z,36.80
2019-02-02T03:45:23.362Z,40.20
2019-02-02T03:47:54.863Z,37.87
2019-02-02T03:50:25.933Z,38.53
2019-02-02T03:52:56.956Z,36.53
2019-02-02T03:55:28.136Z,34.10
2019-02-02T03:57:59.776Z,35.63
2019-02-02T04:00:30.849Z,35.53
2019-02-02T04:03:01.629Z,33.80
2019-02-02T04:05:32.412Z,32.93
2019-02-02T04:08:04.455Z,33.77
2019-02-02T04:10:35.419Z,35.90
2019-02-02T04:13:06.205Z,36.53
2019-02-02T04:15:37.164Z,35.13
2019-02-02T04:18:08.409Z,36.30
2019-02-02T04:20:39.661Z,36.67
2019-02-02T04:23:11.462Z,37.63
2019-02-02T04:25:42.766Z,35.47
2019-02-02T04:28:13.613Z,34.40
2019-02-02T04:30:44.850Z,36.30
2019-02-02T04:33:16.196Z,35.40
2019-02-02T04:35:47.303Z,32.20
2019-02-02T04:38:18.141Z,33.70
2019-02-02T04:40:49.054Z,34.03
2019-02-02T04:43:19.996Z,34.30
2019-02-02T04:45:50.779Z,35.53
2019-02-02T04:48:21.841Z,35.33
2019-02-02T04:50:52.947Z,36.00
2019-02-02T04:53:23.951Z,33.93
2019-02-02T04:55:54.735Z,34.97
2019-02-02T04:58:25.596Z,37.53
2019-02-02T05:00:56.636Z,35.90
2019-02-02T05:03:27.637Z,37.17
2019-02-02T05:05:59.142Z,35.93
2019-02-02T05:08:30.203Z,36.93
2019-02-02T05:11:01.321Z,35.37
2019-02-02T05:13:32.568Z,34.73
2019-02-02T05:16:03.609Z,37.93
2019-02-02T05:18:34.385Z,33.43
2019-02-02T05:21:05.317Z,37.30
2019-02-02T05:23:36.532Z,35.67
2019-02-02T05:26:07.496Z,31.47
2019-02-02T05:28:38.282Z,36.27
2019-02-02T05:31:09.350Z,35.67
2019-02-02T05:33:40.507Z,34.60
2019-02-02T05:36:11.585Z,33.03
2019-02-02T05:38:43.094Z,36.97
2019-02-02T05:41:14.354Z,33.20
2019-02-02T05:43:45.393Z,33.10
2019-02-02T05:46:16.425Z,34.03
2019-02-02T05:48:47.241Z,33.73
2019-02-02T05:51:18.159Z,32.93
2019-02-02T05:53:49.386Z,34.73
2019-02-02T05:56:20.543Z,32.50
2019-02-02T05:58:51.321Z,33.53
2019-02-02T06:01:22.130Z,33.63
2019-02-02T06:03:52.979Z,32.40
2019-02-02T06:06:24.147Z,30.17
2019-02-02T06:08:55.017Z,29.23
2019-02-02T06:11:25.939Z,28.30
2019-02-02T06:13:56.725Z,30.57
2019-02-02T06:16:27.799Z,31.40
2019-02-02T06:18:58.605Z,29.93
2019-02-02T06:21:29.694Z,31.13
2019-02-02T06:24:00.737Z,34.50
2019-02-02T06:26:31.575Z,33.07
2019-02-02T06:29:02.589Z,33.77
2019-02-02T06:31:33.426Z,33.03
2019-02-02T06:34:04.435Z,35.93
2019-02-02T06:36:36.491Z,36.20
2019-02-02T06:39:08.356Z,35.40
2019-02-02T06:41:39.410Z,34.53
2019-02-02T06:44:10.266Z,34.70
2019-02-02T06:46:43.678Z,36.30
2019-02-02T06:49:13.921Z,34.17
2019-02-02T06:51:44.952Z,35.27
2019-02-02T06:54:16.308Z,37.43
2019-02-02T06:56:47.482Z,34.90
2019-02-02T06:59:18.592Z,39.10
2019-02-02T07:01:49.397Z,33.50
2019-02-02T07:04:20.226Z,37.87
2019-02-02T07:06:51.199Z,37.00
2019-02-02T07:09:22.456Z,40.73
2019-02-02T07:11:53.600Z,45.20
2019-02-02T07:14:24.743Z,40.80
2019-02-02T07:16:55.512Z,40.77
2019-02-02T07:19:29.038Z,41.07
2019-02-02T07:21:59.001Z,38.93
2019-02-02T07:24:30.073Z,41.97
2019-02-02T07:27:00.927Z,40.40
2019-02-02T07:29:32.137Z,38.27
2019-02-02T07:32:03.249Z,38.57
2019-02-02T07:34:34.055Z,44.20
2019-02-02T07:37:05.128Z,42.30
2019-02-02T07:39:35.911Z,43.80
2019-02-02T07:42:06.678Z,39.70
2019-02-02T07:44:37.602Z,39.93
2019-02-02T07:47:09.312Z,38.63
2019-02-02T07:49:40.660Z,44.53
2019-02-02T07:52:11.698Z,41.03
2019-02-02T07:54:43.771Z,40.40
2019-02-02T07:57:14.918Z,38.70
2019-02-02T07:59:45.709Z,40.10
2019-02-02T08:02:16.774Z,40.10
2019-02-02T08:04:48.071Z,39.57
2019-02-02T08:07:19.393Z,43.17
2019-02-02T08:09:50.197Z,39.50
2019-02-02T08:12:21.372Z,38.97
2019-02-02T08:14:52.162Z,39.23
2019-02-02T08:17:23.762Z,45.27
2019-02-02T08:19:54.909Z,40.73
2019-02-02T08:22:26.053Z,47.43
2019-02-02T08:24:57.137Z,43.60
2019-02-02T08:27:27.990Z,51.77
2019-02-02T08:29:59.487Z,50.30
2019-02-02T08:32:30.251Z,55.10
2019-02-02T08:35:01.020Z,49.67
2019-02-02T08:37:32.131Z,50.63
2019-02-02T08:40:03.012Z,52.53
2019-02-02T08:42:34.098Z,56.73
2019-02-02T08:45:06.100Z,54.13
2019-02-02T08:47:37.125Z,47.33
2019-02-02T08:50:15.035Z,47.87
2019-02-02T08:52:46.026Z,46.33
2019-02-02T08:55:16.809Z,48.47
2019-02-02T08:57:47.819Z,49.70
2019-02-02T09:00:19.705Z,50.70
2019-02-02T09:02:50.944Z,48.23
2019-02-02T09:05:22.217Z,50.37
2019-02-02T09:07:53.157Z,49.67
2019-02-02T09:10:25.962Z,55.30
2019-02-02T09:12:57.371Z,51.27
2019-02-02T09:15:28.895Z,49.80
2019-02-02T09:18:00.018Z,52.50
2019-02-02T09:20:30.879Z,51.90
2019-02-02T09:23:06.420Z,55.50
2019-02-02T09:25:34.921Z,48.00
2019-02-02T09:28:05.986Z,44.80
2019-02-02T09:30:38.352Z,47.33
2019-02-02T09:33:09.569Z,47.87
2019-02-02T09:35:40.710Z,47.43
2019-02-02T09:38:12.327Z,43.37
2019-02-02T09:40:43.446Z,43.67
2019-02-02T09:43:14.216Z,46.53
2019-02-02T09:45:45.257Z,43.90
2019-02-02T09:48:16.739Z,42.67
2019-02-02T09:50:47.546Z,39.00
2019-02-02T09:53:18.558Z,42.57
2019-02-02T09:55:49.667Z,41.17
2019-02-02T09:58:20.552Z,40.80
2019-02-02T10:00:51.704Z,39.73
2019-02-02T10:03:22.469Z,40.20
2019-02-02T10:05:53.556Z,44.97
2019-02-02T10:08:24.353Z,42.67
2019-02-02T10:10:55.632Z,39.97
2019-02-02T10:13:26.431Z,39.33
2019-02-02T10:15:57.425Z,41.53
2019-02-02T10:18:28.575Z,39.87
2019-02-02T10:21:04.012Z,42.47
2019-02-02T10:23:32.561Z,38.13
2019-02-02T10:26:03.483Z,38.23
2019-02-02T10:28:34.243Z,42.27
2019-02-02T10:31:05.137Z,38.13
2019-02-02T10:33:35.883Z,39.07
2019-02-02T10:36:06.894Z,38.33
2019-02-02T10:38:37.749Z,39.77
2019-02-02T10:41:08.773Z,42.77
2019-02-02T10:43:39.601Z,40.73
2019-02-02T10:46:10.951Z,42.80
2019-02-02T10:48:42.015Z,38.03
2019-02-02T10:51:12.808Z,38.40
2019-02-02T10:53:43.558Z,40.43
2019-02-02T10:56:14.492Z,37.37
2019-02-02T10:58:45.493Z,38.63
2019-02-02T11:01:16.360Z,42.43
2019-02-02T11:03:47.129Z,41.57
2019-02-02T11:06:18.154Z,34.00
2019-02-02T11:08:48.943Z,37.30
2019-02-02T11:11:19.962Z,35.53
2019-02-02T11:13:50.798Z,36.57
2019-02-02T11:16:21.569Z,34.80
2019-02-02T11:18:53.268Z,39.43
2019-02-02T11:21:24.133Z,33.47
2019-02-02T11:23:54.888Z,33.40
2019-02-02T11:26:25.910Z,34.57
2019-02-02T11:28:57.082Z,34.87
2019-02-02T11:31:29.137Z,35.80
2019-02-02T11:34:00.055Z,36.50
2019-02-02T11:36:31.069Z,35.17
2019-02-02T11:39:01.819Z,33.37
2019-02-02T11:41:34.195Z,32.30
2019-02-02T11:44:05.298Z,33.07
2019-02-02T11:46:36.308Z,35.30
2019-02-02T11:49:07.685Z,36.77
2019-02-02T11:51:38.538Z,35.50
2019-02-02T11:54:09.668Z,36.07
2019-02-02T11:56:40.510Z,33.57
2019-02-02T11:59:11.645Z,34.87
2019-02-02T12:01:42.746Z,36.60
2019-02-02T12:04:13.864Z,34.33
2019-02-02T12:06:44.623Z,36.30
2019-02-02T12:09:15.396Z,34.40
2019-02-02T12:11:46.452Z,37.07
2019-02-02T12:14:17.492Z,35.40
2019-02-02T12:16:48.275Z,38.07
2019-02-02T12:19:19.190Z,38.33
2019-02-02T12:21:50.352Z,39.83
2019-02-02T12:24:21.197Z,40.60
2019-02-02T12:26:52.321Z,40.43
2019-02-02T12:29:23.332Z,40.40
2019-02-02T12:31:54.477Z,42.27
2019-02-02T12:34:25.319Z,39.63
2019-02-02T12:36:56.120Z,44.33
2019-02-02T12:39:27.160Z,43.90
2019-02-02T12:41:58.336Z,44.80
2019-02-02T12:44:29.414Z,43.63
2019-02-02T12:47:00.628Z,41.33
2019-02-02T12:49:31.477Z,49.93
2019-02-02T12:52:02.377Z,47.10
2019-02-02T12:54:33.344Z,52.47
2019-02-02T12:57:04.452Z,49.20
2019-02-02T12:59:37.992Z,50.90
2019-02-02T13:02:07.713Z,49.93
2019-02-02T13:04:38.560Z,50.13
2019-02-02T13:07:09.693Z,49.63
2019-02-02T13:09:40.650Z,46.43
2019-02-02T13:12:11.549Z,50.57
2019-02-02T13:14:42.612Z,54.90
2019-02-02T13:17:13.997Z,44.63
2019-02-02T13:19:44.754Z,46.30
2019-02-02T13:22:15.834Z,45.83
2019-02-02T13:24:46.891Z,47.07
2019-02-02T13:27:18.029Z,47.70
2019-02-02T13:29:52.042Z,46.47
2019-02-02T13:32:21.553Z,45.90
2019-02-02T13:34:53.152Z,44.47
2019-02-02T13:37:24.200Z,44.90
2019-02-02T13:39:55.242Z,49.00
2019-02-02T13:42:26.037Z,103.27
2019-02-02T13:44:56.907Z,72.87
2019-02-02T13:47:27.705Z,45.33
2019-02-02T13:49:58.727Z,98.30
2019-02-02T13:52:29.525Z,66.80
2019-02-02T13:55:00.471Z,46.13
2019-02-02T13:57:31.852Z,56.20
2019-02-02T14:00:02.996Z,47.00
2019-02-02T14:02:34.581Z,45.17
2019-02-02T14:05:07.410Z,46.53
2019-02-02T14:07:38.335Z,45.23
2019-02-02T14:10:11.462Z,44.93
2019-02-02T14:12:42.469Z,48.47
2019-02-02T14:15:13.429Z,45.77
2019-02-02T14:17:44.427Z,45.60
2019-02-02T14:20:15.806Z,46.37
2019-02-02T14:22:46.969Z,44.83
2019-02-02T14:25:18.085Z,43.03
2019-02-02T14:27:50.025Z,44.40
2019-02-02T14:30:22.773Z,45.80
2019-02-02T14:32:55.011Z,44.40
2019-02-02T14:35:27.544Z,43.30
2019-02-02T14:37:58.393Z,45.83
2019-02-02T14:40:30.124Z,44.93
2019-02-02T14:43:00.996Z,45.30
2019-02-02T14:45:33.034Z,51.17
2019-02-02T14:48:04.462Z,48.03
2019-02-02T14:50:35.593Z,44.83
2019-02-02T14:53:06.485Z,46.10
2019-02-02T14:55:37.265Z,50.17
2019-02-02T14:58:08.371Z,46.57
2019-02-02T15:00:39.509Z,48.17
2019-02-02T15:03:10.531Z,46.70
2019-02-02T15:05:43.320Z,49.40
2019-02-02T15:08:14.143Z,48.67
2019-02-02T15:10:44.901Z,48.00
2019-02-02T15:13:16.028Z,51.93
2019-02-02T15:15:46.862Z,50.43
2019-02-02T15:18:17.727Z,49.77
2019-02-02T15:20:48.557Z,49.93
2019-02-02T15:23:19.409Z,50.17
2019-02-02T15:25:50.438Z,48.17
2019-02-02T15:28:21.623Z,52.93
2019-02-02T15:30:52.676Z,48.03
2019-02-02T15:33:23.760Z,47.87
2019-02-02T15:35:54.852Z,52.70
2019-02-02T15:38:25.679Z,54.67
2019-02-02T15:40:59.282Z,50.70
2019-02-02T15:43:29.176Z,47.33
2019-02-02T15:45:59.937Z,50.37
2019-02-02T15:48:30.715Z,47.27
2019-02-02T15:51:01.788Z,47.60
2019-02-02T15:53:32.788Z,48.57
2019-02-02T15:56:03.775Z,45.30
2019-02-02T15:58:34.570Z,46.57
2019-02-02T16:01:05.519Z,44.17
2019-02-02T16:03:49.123Z,44.43
2019-02-02T16:06:09.967Z,46.23
2019-02-02T16:08:40.979Z,44.10
2019-02-02T16:11:12.932Z,47.47
2019-02-02T16:13:43.717Z,43.50
2019-02-02T16:18:49.864Z,46.57
2019-02-02T16:21:20.628Z,47.17
2019-02-02T16:23:51.721Z,47.87
2019-02-02T16:26:22.704Z,42.87
2019-02-02T16:28:53.557Z,40.83
2019-02-02T16:31:24.323Z,41.73
2019-02-02T16:34:02.218Z,42.90
2019-02-02T16:36:28.104Z,47.27
2019-02-02T16:38:58.982Z,42.73
2019-02-02T16:41:29.821Z,41.10
2019-02-02T16:44:01.097Z,40.83
2019-02-02T16:46:31.919Z,44.90
2019-02-02T16:49:02.951Z,41.53
2019-02-02T16:51:33.815Z,45.70
2019-02-02T16:54:04.692Z,43.07
2019-02-02T16:56:35.462Z,40.63
2019-02-02T16:59:06.641Z,43.23
2019-02-02T17:01:37.467Z,103.47
2019-02-02T17:04:15.342Z,47.90
2019-02-02T17:06:41.381Z,42.00
2019-02-02T17:09:14.028Z,41.87
2019-02-02T17:11:44.952Z,42.87
2019-02-02T17:14:17.819Z,41.10
2019-02-02T17:16:48.297Z,42.87
2019-02-02T17:19:19.306Z,40.13
2019-02-02T17:21:50.138Z,47.97
2019-02-02T17:24:21.153Z,41.83
2019-02-02T17:26:52.145Z,42.47
2019-02-02T17:29:23.006Z,45.40
2019-02-02T17:31:53.838Z,46.63
2019-02-02T17:34:27.272Z,45.47
2019-02-02T17:36:57.460Z,43.20
2019-02-02T17:39:28.583Z,40.30
2019-02-02T17:41:59.486Z,41.77
2019-02-02T17:44:30.502Z,38.33
2019-02-02T17:47:01.496Z,36.57
2019-02-02T17:49:32.389Z,40.00
2019-02-02T17:52:03.392Z,42.87
2019-02-02T17:54:34.174Z,40.63
2019-02-02T17:57:05.322Z,38.67
2019-02-02T17:59:36.336Z,36.47
2019-02-02T18:02:07.400Z,36.77
2019-02-02T18:04:41.223Z,36.13
2019-02-02T18:07:10.705Z,43.10
2019-02-02T18:09:41.498Z,39.07
2019-02-02T18:12:12.264Z,54.20
2019-02-02T18:14:43.276Z,31.43
2019-02-02T18:17:14.277Z,30.70
2019-02-02T18:19:45.561Z,31.83
2019-02-02T18:22:17.958Z,32.00
2019-02-02T18:24:48.992Z,40.97
2019-02-02T18:27:20.022Z,38.10
2019-02-02T18:29:50.877Z,27.13
2019-02-02T18:32:21.641Z,31.83
2019-02-02T18:34:52.737Z,30.20
2019-02-02T18:37:23.732Z,31.03
2019-02-02T18:39:55.098Z,29.17
2019-02-02T18:42:26.232Z,25.87
2019-02-02T18:44:57.245Z,29.00
2019-02-02T18:47:28.009Z,27.23
2019-02-02T18:49:59.212Z,26.43
2019-02-02T18:52:30.607Z,27.90
2019-02-02T18:55:01.489Z,28.27
2019-02-02T18:57:32.524Z,30.67
2019-02-02T19:00:06.091Z,28.17
2019-02-02T19:02:38.187Z,26.67
2019-02-02T19:05:09.603Z,26.33
2019-02-02T19:07:40.703Z,30.40
2019-02-02T19:10:14.782Z,31.13
2019-02-02T19:12:45.635Z,26.07
2019-02-02T19:15:17.153Z,30.00
2019-02-02T19:17:48.587Z,26.77
2019-02-02T19:20:20.587Z,27.97
2019-02-02T19:22:52.168Z,27.90
2019-02-02T19:25:23.676Z,26.00
2019-02-02T19:27:55.154Z,26.70
2019-02-02T19:30:28.136Z,27.77
2019-02-02T19:32:59.794Z,28.77
2019-02-02T19:35:31.050Z,33.30
2019-02-02T19:38:01.995Z,34.07
2019-02-02T19:40:32.860Z,34.63
2019-02-02T19:43:03.702Z,37.97
2019-02-02T19:45:34.500Z,34.70
2019-02-02T19:48:05.674Z,38.03
2019-02-02T19:50:36.452Z,36.27
2019-02-02T19:53:07.417Z,34.67
2019-02-02T19:55:38.203Z,31.83
2019-02-02T19:58:09.044Z,34.20
2019-02-02T20:00:39.917Z,29.73
2019-02-02T20:03:10.693Z,30.20
2019-02-02T20:05:41.551Z,40.87
2019-02-02T20:08:12.342Z,34.03
2019-02-02T20:10:43.459Z,32.97
2019-02-02T20:13:14.496Z,31.33
2019-02-02T20:15:46.225Z,29.07
2019-02-02T20:18:17.540Z,30.07
2019-02-02T20:20:48.602Z,31.97
2019-02-02T20:23:19.615Z,34.07
2019-02-02T20:25:50.455Z,35.00
2019-02-02T20:28:21.397Z,31.77
2019-02-02T20:30:52.404Z,33.40
2019-02-02T20:33:23.461Z,34.73
2019-02-02T20:35:54.629Z,36.73
2019-02-02T20:38:25.409Z,39.67
2019-02-02T20:40:56.253Z,35.00
2019-02-02T20:43:27.330Z,32.80
2019-02-02T20:45:58.593Z,32.27
2019-02-02T20:48:30.318Z,37.17
2019-02-02T20:51:02.017Z,32.57
2019-02-02T20:53:33.122Z,36.70
2019-02-02T20:56:08.052Z,36.47
2019-02-02T20:58:39.095Z,38.97
2019-02-02T21:01:10.181Z,40.17
2019-02-02T21:03:41.305Z,36.93
2019-02-02T21:06:12.091Z,35.40
2019-02-02T21:08:43.158Z,38.77
2019-02-02T21:11:14.181Z,34.63
2019-02-02T21:13:45.457Z,34.37
2019-02-02T21:16:16.424Z,38.10
2019-02-02T21:18:48.149Z,37.73
2019-02-02T21:21:19.009Z,39.07
2019-02-02T21:23:50.034Z,43.77
2019-02-02T21:26:21.072Z,44.43
2019-02-02T21:28:52.116Z,44.33
2019-02-02T21:31:22.982Z,45.90
2019-02-02T21:33:53.990Z,44.67
2019-02-02T21:36:24.749Z,41.30
2019-02-02T21:38:55.771Z,45.67
2019-02-02T21:41:26.541Z,49.00
2019-02-02T21:43:57.615Z,53.07
2019-02-02T21:46:28.387Z,52.33
2019-02-02T21:48:59.566Z,59.43
2019-02-02T21:51:30.381Z,56.17
2019-02-02T21:54:01.512Z,55.30
2019-02-02T21:56:32.605Z,51.90
2019-02-02T21:59:04.102Z,56.13
2019-02-02T22:01:35.325Z,62.43
2019-02-02T22:04:07.003Z,58.23
2019-02-02T22:06:37.996Z,60.17
2019-02-02T22:09:09.031Z,59.27
2019-02-02T22:11:40.384Z,57.53
2019-02-02T22:14:11.901Z,57.57
2019-02-02T22:16:43.140Z,57.40
2019-02-02T22:19:13.924Z,60.57
2019-02-02T22:21:44.952Z,64.90
2019-02-02T22:24:15.818Z,57.53
2019-02-02T22:26:47.156Z,61.27
2019-02-02T22:29:18.254Z,60.07
2019-02-02T22:31:49.028Z,63.00
2019-02-02T22:34:19.878Z,62.50
2019-02-02T22:36:51.071Z,54.47
2019-02-02T22:39:22.176Z,52.70
2019-02-02T22:41:52.938Z,55.00
2019-02-02T22:44:23.958Z,53.60
2019-02-02T22:46:55.129Z,57.63
2019-02-02T22:49:26.480Z,52.63
2019-02-02T22:51:59.899Z,57.03
2019-02-02T22:54:30.360Z,57.53
2019-02-02T22:57:01.205Z,51.07
2019-02-02T22:59:32.487Z,51.60
2019-02-02T23:02:09.694Z,58.47
2019-02-02T23:05:15.565Z,54.73
2019-02-02T23:08:44.738Z,62.10
2019-02-02T23:11:41.480Z,59.30
2019-02-02T23:14:48.254Z,59.50
2019-02-02T23:17:19.541Z,49.73
2019-02-02T23:19:50.606Z,54.87
2019-02-02T23:22:22.664Z,49.03
2019-02-02T23:24:53.448Z,50.60
2019-02-02T23:27:24.233Z,53.43
2019-02-02T23:29:55.266Z,50.83
2019-02-02T23:32:26.270Z,48.53
2019-02-02T23:34:57.609Z,52.67
2019-02-02T23:37:28.522Z,51.87
2019-02-02T23:40:00.352Z,49.73
2019-02-02T23:42:31.162Z,52.00
2019-02-02T23:45:02.198Z,48.30
2019-02-02T23:47:34.338Z,61.10
2019-02-02T23:50:05.757Z,57.97
2019-02-02T23:52:36.521Z,52.23
2019-02-02T23:55:07.874Z,45.10
2019-02-02T23:57:39.145Z,49.00
